CST,Max TemperatureF,Mean TemperatureF,Min TemperatureF,Max Dew PointF,MeanDew PointF,Min DewpointF,Max Humidity, Mean Humidity, Min Humidity, Max Sea Level PressureIn, Mean Sea Level PressureIn, Min Sea Level PressureIn, Max VisibilityMiles, Mean VisibilityMiles, Min VisibilityMiles, Max Wind SpeedMPH, Mean Wind SpeedMPH, Max Gust SpeedMPH,PrecipitationIn, CloudCover, Events, WindDirDegrees
2011-12-1,30,24,19,28,22,9,100,81,59,30.42,30.31,30.08,10,9,2,14,9,18,0.01,4,Snow,344
2011-12-2,30,19,8,19,12,7,92,72,51,30.41,30.26,30.08,10,10,10,16,5,22,0.00,0,,187
2011-12-3,32,29,26,27,26,25,100,89,80,30.08,30.03,29.97,10,7,0,10,5,20,0.10,3,Snow,240
2011-12-4,26,24,21,27,20,18,100,88,80,30.30,30.10,29.92,10,9,3,14,8,,0.00,8,Snow,306
2011-12-5,19,16,12,16,13,10,93,82,74,30.46,30.42,30.33,10,10,3,14,7,,0.00,7,Snow,321
2011-12-6,17,11,5,10,9,1,92,81,68,30.45,30.31,30.11,10,9,2,9,4,,0.00,5,Snow,273
2011-12-7,24,17,10,18,11,5,93,79,64,30.06,30.00,29.92,10,10,10,10,5,,0.00,4,,248
2011-12-8,26,18,10,19,9,1,86,67,49,30.17,30.13,30.07,10,10,10,18,10,26,0.00,1,,263
2011-12-9,14,7,0,1,-1,-6,85,72,53,30.35,30.27,30.18,10,10,10,15,6,20,0.00,0,,255
2011-12-10,24,12,0,18,4,-8,93,74,66,30.35,30.24,30.15,10,10,7,13,4,,0.00,0,,197
2011-12-11,35,27,19,32,24,16,93,82,69,30.10,30.07,30.05,10,8,4,15,8,28,0.00,3,,201
2011-12-12,37,36,33,34,34,32,93,91,87,30.23,30.15,30.09,10,7,3,9,5,,0.00,8,Rain,186
2011-12-13,35,34,32,34,32,30,100,95,93,30.32,30.27,30.19,7,4,2,6,1,,0.00,8,,122
2011-12-14,37,35,33,37,35,32,100,99,93,30.07,29.83,29.63,7,3,0,8,5,,0.48,8,Fog-Rain,121
2011-12-15,35,28,21,36,23,14,100,80,69,30.25,29.94,29.65,10,9,4,26,18,37,0.00,5,,293
2011-12-16,26,20,14,18,15,12,93,81,59,30.40,30.36,30.31,10,10,7,9,3,,0.00,2,Snow,319
2011-12-17,32,24,17,27,22,16,100,90,80,30.29,30.17,30.09,10,8,2,13,3,17,0.00,5,Snow,247
2011-12-18,44,30,17,34,28,18,100,81,61,30.12,29.85,29.69,10,10,10,14,4,18,0.00,0,,211
2011-12-19,37,30,24,30,24,18,93,78,64,30.27,30.05,29.74,10,10,10,18,9,23,0.00,3,,326
2011-12-20,30,20,10,21,17,9,100,85,64,30.24,30.00,29.76,10,10,10,12,2,,0.00,0,,197
2011-12-21,30,24,17,27,20,16,100,89,69,29.94,29.72,29.63,10,9,2,9,3,,0.00,3,Snow,293
2011-12-22,26,19,12,19,13,7,86,69,46,30.32,30.24,30.04,10,10,7,16,8,18,0.00,3,,322
2011-12-23,33,24,15,21,17,10,86,74,55,30.27,30.10,29.97,10,10,2,16,6,26,0.00,1,Snow,232
2011-12-24,39,24,10,25,19,10,100,71,52,30.17,30.08,30.02,10,10,10,15,6,22,0.00,0,,238
2011-12-25,39,34,26,25,23,21,80,67,52,30.27,30.17,30.00,10,10,10,20,12,28,0.00,0,,274
2011-12-26,48,36,23,32,22,19,86,59,37,30.15,29.85,29.69,10,10,10,22,7,44,0.00,0,,209
2011-12-27,37,29,21,30,22,14,81,70,55,30.00,29.85,29.67,10,10,10,21,14,26,0.00,4,,320
2011-12-28,37,28,19,25,19,12,93,73,52,30.02,29.84,29.65,10,10,10,16,4,16,0.00,3,,156
2011-12-29,35,27,19,28,26,19,100,87,70,29.65,29.56,29.40,10,9,3,15,6,20,0.00,3,,282
2011-12-30,30,27,24,27,25,25,100,89,80,29.84,29.70,29.59,10,8,2,7,4,,0.00,6,Snow,40
2011-12-31,42,34,26,36,32,25,100,92,76,29.82,29.67,29.53,10,7,2,17,6,23,0.06,6,Rain,151